sensor_id;sensor_type;location;lat;lon;timestamp;P1;durP1;ratioP1;P2;durP2;ratioP2
46365;SDS011;32073;49.166;8.076;2022-12-20T00:03:26;29.08;;;15.48;;
46365;SDS011;32073;49.166;8.076;2022-12-20T00:07:27;31.88;;;16.58;;
46365;SDS011;32073;49.166;8.076;2022-12-20T00:11:28;28.58;;;15.38;;
46365;SDS011;32073;49.166;8.076;2022-12-20T00:15:29;28.58;;;15.20;;
46365;SDS011;32073;49.166;8.076;2022-12-20T00:19:31;26.70;;;15.00;;
46365;SDS011;32073;49.166;8.076;2022-12-20T00:23:32;25.60;;;13.90;;
46365;SDS011;32073;49.166;8.076;2022-12-20T00:27:33;30.10;;;15.60;;
46365;SDS011;32073;49.166;8.076;2022-12-20T00:31:34;27.33;;;16.15;;
46365;SDS011;32073;49.166;8.076;2022-12-20T00:35:35;28.15;;;14.48;;
46365;SDS011;32073;49.166;8.076;2022-12-20T00:39:41;25.75;;;13.93;;
46365;SDS011;32073;49.166;8.076;2022-12-20T00:43:41;28.70;;;15.60;;
46365;SDS011;32073;49.166;8.076;2022-12-20T00:47:42;24.85;;;13.88;;
46365;SDS011;32073;49.166;8.076;2022-12-20T00:51:43;24.45;;;14.23;;
46365;SDS011;32073;49.166;8.076;2022-12-20T00:55:45;24.38;;;13.15;;
46365;SDS011;32073;49.166;8.076;2022-12-20T00:59:46;26.15;;;14.07;;
46365;SDS011;32073;49.166;8.076;2022-12-20T01:03:47;25.52;;;14.15;;
46365;SDS011;32073;49.166;8.076;2022-12-20T01:07:48;23.35;;;13.50;;
46365;SDS011;32073;49.166;8.076;2022-12-20T01:11:49;23.85;;;13.27;;
46365;SDS011;32073;49.166;8.076;2022-12-20T01:15:50;25.33;;;14.77;;
46365;SDS011;32073;49.166;8.076;2022-12-20T01:19:50;28.55;;;15.57;;
46365;SDS011;32073;49.166;8.076;2022-12-20T01:23:51;29.63;;;16.48;;
46365;SDS011;32073;49.166;8.076;2022-12-20T01:27:52;31.15;;;16.42;;
46365;SDS011;32073;49.166;8.076;2022-12-20T01:31:53;24.83;;;14.07;;
46365;SDS011;32073;49.166;8.076;2022-12-20T01:35:56;30.25;;;16.20;;
46365;SDS011;32073;49.166;8.076;2022-12-20T01:40:06;26.90;;;15.23;;
46365;SDS011;32073;49.166;8.076;2022-12-20T01:48:17;27.13;;;14.35;;
46365;SDS011;32073;49.166;8.076;2022-12-20T01:52:28;29.52;;;15.45;;
46365;SDS011;32073;49.166;8.076;2022-12-20T01:56:35;27.05;;;14.70;;
46365;SDS011;32073;49.166;8.076;2022-12-20T02:00:36;26.95;;;14.50;;
46365;SDS011;32073;49.166;8.076;2022-12-20T02:04:38;30.13;;;14.95;;
46365;SDS011;32073;49.166;8.076;2022-12-20T02:08:39;26.77;;;15.23;;
46365;SDS011;32073;49.166;8.076;2022-12-20T02:12:43;27.65;;;15.27;;
46365;SDS011;32073;49.166;8.076;2022-12-20T02:16:56;28.25;;;14.75;;
46365;SDS011;32073;49.166;8.076;2022-12-20T02:22:13;27.05;;;13.82;;
46365;SDS011;32073;49.166;8.076;2022-12-20T02:31:05;22.60;;;13.10;;
46365;SDS011;32073;49.166;8.076;2022-12-20T02:35:13;25.88;;;14.23;;
46365;SDS011;32073;49.166;8.076;2022-12-20T02:39:20;25.95;;;13.65;;
46365;SDS011;32073;49.166;8.076;2022-12-20T02:43:23;23.25;;;13.18;;
46365;SDS011;32073;49.166;8.076;2022-12-20T02:51:51;27.30;;;14.65;;
46365;SDS011;32073;49.166;8.076;2022-12-20T02:56:07;26.95;;;14.65;;
46365;SDS011;32073;49.166;8.076;2022-12-20T03:00:23;20.80;;;12.20;;
46365;SDS011;32073;49.166;8.076;2022-12-20T03:04:28;25.88;;;14.25;;
46365;SDS011;32073;49.166;8.076;2022-12-20T03:08:32;22.60;;;13.10;;
46365;SDS011;32073;49.166;8.076;2022-12-20T03:12:33;25.60;;;12.93;;
46365;SDS011;32073;49.166;8.076;2022-12-20T03:16:33;22.02;;;12.55;;
46365;SDS011;32073;49.166;8.076;2022-12-20T03:20:34;21.98;;;12.93;;
46365;SDS011;32073;49.166;8.076;2022-12-20T03:24:35;18.50;;;11.65;;
46365;SDS011;32073;49.166;8.076;2022-12-20T03:28:36;21.88;;;12.30;;
46365;SDS011;32073;49.166;8.076;2022-12-20T03:32:36;25.77;;;12.90;;
46365;SDS011;32073;49.166;8.076;2022-12-20T03:36:37;22.17;;;13.23;;
46365;SDS011;32073;49.166;8.076;2022-12-20T03:40:37;22.30;;;13.07;;
46365;SDS011;32073;49.166;8.076;2022-12-20T03:44:38;24.33;;;12.82;;
46365;SDS011;32073;49.166;8.076;2022-12-20T03:48:39;22.73;;;12.38;;
46365;SDS011;32073;49.166;8.076;2022-12-20T03:52:39;21.13;;;11.80;;
46365;SDS011;32073;49.166;8.076;2022-12-20T03:56:40;21.58;;;12.90;;
46365;SDS011;32073;49.166;8.076;2022-12-20T04:00:41;22.88;;;12.88;;
46365;SDS011;32073;49.166;8.076;2022-12-20T04:04:42;18.80;;;10.57;;
46365;SDS011;32073;49.166;8.076;2022-12-20T04:08:42;19.20;;;10.75;;
46365;SDS011;32073;49.166;8.076;2022-12-20T04:12:43;22.02;;;12.10;;
46365;SDS011;32073;49.166;8.076;2022-12-20T04:16:44;22.90;;;12.43;;
46365;SDS011;32073;49.166;8.076;2022-12-20T04:20:45;20.58;;;11.95;;
46365;SDS011;32073;49.166;8.076;2022-12-20T04:24:52;22.58;;;11.57;;
46365;SDS011;32073;49.166;8.076;2022-12-20T04:28:53;21.13;;;12.50;;
46365;SDS011;32073;49.166;8.076;2022-12-20T04:32:53;21.80;;;12.50;;
46365;SDS011;32073;49.166;8.076;2022-12-20T04:36:54;21.77;;;12.40;;
46365;SDS011;32073;49.166;8.076;2022-12-20T04:40:55;18.25;;;11.18;;
46365;SDS011;32073;49.166;8.076;2022-12-20T04:44:56;19.83;;;11.40;;
46365;SDS011;32073;49.166;8.076;2022-12-20T04:48:56;19.75;;;11.88;;
46365;SDS011;32073;49.166;8.076;2022-12-20T04:52:57;22.67;;;12.80;;
46365;SDS011;32073;49.166;8.076;2022-12-20T04:57:17;23.77;;;12.95;;
46365;SDS011;32073;49.166;8.076;2022-12-20T05:01:17;26.55;;;14.45;;
46365;SDS011;32073;49.166;8.076;2022-12-20T05:05:19;25.40;;;14.32;;
46365;SDS011;32073;49.166;8.076;2022-12-20T05:09:19;26.58;;;15.38;;
46365;SDS011;32073;49.166;8.076;2022-12-20T05:13:20;27.23;;;14.95;;
46365;SDS011;32073;49.166;8.076;2022-12-20T05:17:21;27.08;;;14.27;;
46365;SDS011;32073;49.166;8.076;2022-12-20T05:21:21;26.27;;;14.43;;
46365;SDS011;32073;49.166;8.076;2022-12-20T05:30:05;18.17;;;10.63;;
46365;SDS011;32073;49.166;8.076;2022-12-20T05:34:07;21.58;;;12.25;;
46365;SDS011;32073;49.166;8.076;2022-12-20T05:38:08;20.63;;;11.68;;
46365;SDS011;32073;49.166;8.076;2022-12-20T05:42:10;108.75;;;32.97;;
46365;SDS011;32073;49.166;8.076;2022-12-20T05:46:11;173.98;;;67.68;;
46365;SDS011;32073;49.166;8.076;2022-12-20T05:50:12;55.72;;;26.65;;
46365;SDS011;32073;49.166;8.076;2022-12-20T05:54:12;34.05;;;16.90;;
46365;SDS011;32073;49.166;8.076;2022-12-20T05:58:13;26.63;;;13.90;;
46365;SDS011;32073;49.166;8.076;2022-12-20T06:02:14;22.42;;;12.27;;
46365;SDS011;32073;49.166;8.076;2022-12-20T06:06:14;26.15;;;11.68;;
46365;SDS011;32073;49.166;8.076;2022-12-20T06:10:15;18.60;;;11.23;;
46365;SDS011;32073;49.166;8.076;2022-12-20T06:14:16;21.25;;;11.63;;
46365;SDS011;32073;49.166;8.076;2022-12-20T06:18:17;20.58;;;11.90;;
46365;SDS011;32073;49.166;8.076;2022-12-20T06:22:17;23.50;;;13.80;;
46365;SDS011;32073;49.166;8.076;2022-12-20T06:26:18;27.92;;;16.15;;
46365;SDS011;32073;49.166;8.076;2022-12-20T06:30:19;25.45;;;15.70;;
46365;SDS011;32073;49.166;8.076;2022-12-20T06:34:21;61.50;;;34.40;;
46365;SDS011;32073;49.166;8.076;2022-12-20T06:38:21;45.40;;;26.35;;
46365;SDS011;32073;49.166;8.076;2022-12-20T06:42:22;23.38;;;13.55;;
46365;SDS011;32073;49.166;8.076;2022-12-20T06:46:24;21.35;;;12.48;;
46365;SDS011;32073;49.166;8.076;2022-12-20T06:50:26;23.20;;;12.13;;
46365;SDS011;32073;49.166;8.076;2022-12-20T06:54:26;26.42;;;14.63;;
46365;SDS011;32073;49.166;8.076;2022-12-20T06:58:27;21.83;;;13.45;;
46365;SDS011;32073;49.166;8.076;2022-12-20T07:02:28;28.38;;;16.17;;
46365;SDS011;32073;49.166;8.076;2022-12-20T07:06:29;21.13;;;12.23;;
46365;SDS011;32073;49.166;8.076;2022-12-20T07:10:30;22.52;;;13.30;;
46365;SDS011;32073;49.166;8.076;2022-12-20T07:14:32;20.00;;;11.82;;
46365;SDS011;32073;49.166;8.076;2022-12-20T07:18:33;21.42;;;12.23;;
46365;SDS011;32073;49.166;8.076;2022-12-20T07:22:35;22.75;;;12.82;;
46365;SDS011;32073;49.166;8.076;2022-12-20T07:26:35;22.42;;;12.60;;
46365;SDS011;32073;49.166;8.076;2022-12-20T07:30:36;19.80;;;11.45;;
46365;SDS011;32073;49.166;8.076;2022-12-20T07:34:37;19.58;;;12.00;;
46365;SDS011;32073;49.166;8.076;2022-12-20T07:38:37;20.13;;;11.65;;
46365;SDS011;32073;49.166;8.076;2022-12-20T07:42:38;22.00;;;13.25;;
46365;SDS011;32073;49.166;8.076;2022-12-20T07:46:39;22.10;;;12.70;;
46365;SDS011;32073;49.166;8.076;2022-12-20T07:50:39;23.10;;;13.27;;
46365;SDS011;32073;49.166;8.076;2022-12-20T07:55:00;20.52;;;11.50;;
46365;SDS011;32073;49.166;8.076;2022-12-20T07:59:05;22.83;;;12.73;;
46365;SDS011;32073;49.166;8.076;2022-12-20T08:03:26;19.92;;;11.88;;
46365;SDS011;32073;49.166;8.076;2022-12-20T08:07:32;21.17;;;11.48;;
46365;SDS011;32073;49.166;8.076;2022-12-20T08:11:34;19.88;;;12.32;;
46365;SDS011;32073;49.166;8.076;2022-12-20T08:15:37;25.05;;;12.77;;
46365;SDS011;32073;49.166;8.076;2022-12-20T08:19:38;21.33;;;12.02;;
46365;SDS011;32073;49.166;8.076;2022-12-20T08:23:38;20.35;;;12.00;;
46365;SDS011;32073;49.166;8.076;2022-12-20T08:27:39;17.52;;;10.02;;
46365;SDS011;32073;49.166;8.076;2022-12-20T08:31:40;17.33;;;9.65;;
46365;SDS011;32073;49.166;8.076;2022-12-20T08:35:41;14.07;;;7.47;;
46365;SDS011;32073;49.166;8.076;2022-12-20T08:39:42;14.50;;;7.53;;
46365;SDS011;32073;49.166;8.076;2022-12-20T08:43:42;11.55;;;6.57;;
46365;SDS011;32073;49.166;8.076;2022-12-20T08:47:43;9.27;;;5.63;;
46365;SDS011;32073;49.166;8.076;2022-12-20T08:51:44;10.88;;;6.45;;
46365;SDS011;32073;49.166;8.076;2022-12-20T08:55:44;33.60;;;14.38;;
46365;SDS011;32073;49.166;8.076;2022-12-20T08:59:45;20.33;;;10.20;;
46365;SDS011;32073;49.166;8.076;2022-12-20T09:03:46;47.65;;;20.70;;
46365;SDS011;32073;49.166;8.076;2022-12-20T09:07:47;45.13;;;20.92;;
46365;SDS011;32073;49.166;8.076;2022-12-20T09:11:48;86.80;;;33.38;;
46365;SDS011;32073;49.166;8.076;2022-12-20T09:15:48;29.77;;;15.98;;
46365;SDS011;32073;49.166;8.076;2022-12-20T09:19:49;19.98;;;11.77;;
46365;SDS011;32073;49.166;8.076;2022-12-20T09:23:50;23.67;;;11.98;;
46365;SDS011;32073;49.166;8.076;2022-12-20T09:27:53;33.45;;;18.08;;
46365;SDS011;32073;49.166;8.076;2022-12-20T09:31:55;31.15;;;15.25;;
46365;SDS011;32073;49.166;8.076;2022-12-20T09:35:56;25.38;;;13.43;;
46365;SDS011;32073;49.166;8.076;2022-12-20T09:39:58;32.60;;;16.90;;
46365;SDS011;32073;49.166;8.076;2022-12-20T09:43:59;67.72;;;29.98;;
46365;SDS011;32073;49.166;8.076;2022-12-20T09:48:17;16.08;;;8.77;;
46365;SDS011;32073;49.166;8.076;2022-12-20T09:56:31;6.05;;;3.58;;
46365;SDS011;32073;49.166;8.076;2022-12-20T10:00:40;4.30;;;2.65;;
46365;SDS011;32073;49.166;8.076;2022-12-20T10:13:09;5.60;;;1.75;;
46365;SDS011;32073;49.166;8.076;2022-12-20T10:17:40;1.90;;;1.20;;
46365;SDS011;32073;49.166;8.076;2022-12-20T10:26:26;1.38;;;1.20;;
46365;SDS011;32073;49.166;8.076;2022-12-20T10:30:30;3.17;;;1.30;;
46365;SDS011;32073;49.166;8.076;2022-12-20T10:34:32;2.85;;;1.52;;
46365;SDS011;32073;49.166;8.076;2022-12-20T10:38:42;3.28;;;1.55;;
46365;SDS011;32073;49.166;8.076;2022-12-20T10:42:45;3.78;;;1.45;;
46365;SDS011;32073;49.166;8.076;2022-12-20T10:46:48;1.55;;;1.00;;
46365;SDS011;32073;49.166;8.076;2022-12-20T10:50:54;2.65;;;1.20;;
46365;SDS011;32073;49.166;8.076;2022-12-20T10:54:59;2.55;;;1.20;;
46365;SDS011;32073;49.166;8.076;2022-12-20T11:03:17;1.90;;;1.10;;
46365;SDS011;32073;49.166;8.076;2022-12-20T11:07:22;1.30;;;0.90;;
46365;SDS011;32073;49.166;8.076;2022-12-20T11:11:26;1.50;;;1.08;;
46365;SDS011;32073;49.166;8.076;2022-12-20T11:15:29;2.88;;;1.40;;
46365;SDS011;32073;49.166;8.076;2022-12-20T11:23:53;2.83;;;2.13;;
46365;SDS011;32073;49.166;8.076;2022-12-20T11:41:24;5.03;;;3.03;;
46365;SDS011;32073;49.166;8.076;2022-12-20T11:46:00;15.80;;;9.00;;
46365;SDS011;32073;49.166;8.076;2022-12-20T11:55:03;6.20;;;3.28;;
46365;SDS011;32073;49.166;8.076;2022-12-20T12:03:37;5.77;;;2.97;;
46365;SDS011;32073;49.166;8.076;2022-12-20T12:07:42;5.93;;;3.47;;
46365;SDS011;32073;49.166;8.076;2022-12-20T12:11:48;4.57;;;3.13;;
46365;SDS011;32073;49.166;8.076;2022-12-20T12:16:10;4.30;;;3.10;;
46365;SDS011;32073;49.166;8.076;2022-12-20T12:20:22;3.45;;;2.90;;
46365;SDS011;32073;49.166;8.076;2022-12-20T12:24:48;4.55;;;2.97;;
46365;SDS011;32073;49.166;8.076;2022-12-20T12:28:57;4.75;;;2.72;;
46365;SDS011;32073;49.166;8.076;2022-12-20T12:33:02;3.45;;;2.33;;
46365;SDS011;32073;49.166;8.076;2022-12-20T12:46:29;4.13;;;2.20;;
46365;SDS011;32073;49.166;8.076;2022-12-20T12:50:35;3.20;;;1.70;;
46365;SDS011;32073;49.166;8.076;2022-12-20T12:54:39;2.78;;;1.63;;
46365;SDS011;32073;49.166;8.076;2022-12-20T12:58:40;3.13;;;1.65;;
46365;SDS011;32073;49.166;8.076;2022-12-20T13:03:04;3.08;;;1.67;;
46365;SDS011;32073;49.166;8.076;2022-12-20T13:11:37;4.07;;;2.72;;
46365;SDS011;32073;49.166;8.076;2022-12-20T13:19:48;3.65;;;2.63;;
46365;SDS011;32073;49.166;8.076;2022-12-20T13:24:16;3.47;;;2.58;;
46365;SDS011;32073;49.166;8.076;2022-12-20T13:28:48;3.28;;;2.25;;
46365;SDS011;32073;49.166;8.076;2022-12-20T13:36:49;3.40;;;1.95;;
46365;SDS011;32073;49.166;8.076;2022-12-20T13:40:58;2.57;;;1.70;;
46365;SDS011;32073;49.166;8.076;2022-12-20T13:45:01;2.40;;;1.40;;
46365;SDS011;32073;49.166;8.076;2022-12-20T13:49:04;2.85;;;1.70;;
46365;SDS011;32073;49.166;8.076;2022-12-20T13:53:16;3.33;;;1.83;;
46365;SDS011;32073;49.166;8.076;2022-12-20T13:57:31;3.63;;;1.85;;
46365;SDS011;32073;49.166;8.076;2022-12-20T14:01:50;4.10;;;2.15;;
46365;SDS011;32073;49.166;8.076;2022-12-20T14:05:57;4.15;;;2.42;;
46365;SDS011;32073;49.166;8.076;2022-12-20T14:10:02;4.65;;;1.98;;
46365;SDS011;32073;49.166;8.076;2022-12-20T14:14:17;2.85;;;1.95;;
46365;SDS011;32073;49.166;8.076;2022-12-20T14:18:21;6.05;;;2.47;;
46365;SDS011;32073;49.166;8.076;2022-12-20T14:22:24;3.67;;;2.28;;
46365;SDS011;32073;49.166;8.076;2022-12-20T14:30:34;5.55;;;2.20;;
46365;SDS011;32073;49.166;8.076;2022-12-20T14:34:42;5.53;;;2.67;;
46365;SDS011;32073;49.166;8.076;2022-12-20T14:38:43;7.32;;;2.25;;
46365;SDS011;32073;49.166;8.076;2022-12-20T14:42:50;7.68;;;2.42;;
46365;SDS011;32073;49.166;8.076;2022-12-20T14:46:57;5.75;;;2.10;;
46365;SDS011;32073;49.166;8.076;2022-12-20T14:51:21;3.80;;;1.77;;
46365;SDS011;32073;49.166;8.076;2022-12-20T14:55:22;7.22;;;2.17;;
46365;SDS011;32073;49.166;8.076;2022-12-20T14:59:35;8.55;;;2.15;;
46365;SDS011;32073;49.166;8.076;2022-12-20T15:03:36;7.95;;;2.17;;
46365;SDS011;32073;49.166;8.076;2022-12-20T15:08:08;6.13;;;1.77;;
46365;SDS011;32073;49.166;8.076;2022-12-20T15:12:18;3.85;;;1.50;;
46365;SDS011;32073;49.166;8.076;2022-12-20T15:16:22;3.75;;;1.77;;
46365;SDS011;32073;49.166;8.076;2022-12-20T15:24:28;3.55;;;1.90;;
46365;SDS011;32073;49.166;8.076;2022-12-20T15:28:29;4.05;;;1.88;;
46365;SDS011;32073;49.166;8.076;2022-12-20T15:32:30;7.97;;;2.10;;
46365;SDS011;32073;49.166;8.076;2022-12-20T15:36:31;5.38;;;2.20;;
46365;SDS011;32073;49.166;8.076;2022-12-20T15:40:33;2.70;;;1.60;;
46365;SDS011;32073;49.166;8.076;2022-12-20T15:44:33;2.85;;;1.67;;
46365;SDS011;32073;49.166;8.076;2022-12-20T15:48:36;2.63;;;1.67;;
46365;SDS011;32073;49.166;8.076;2022-12-20T15:52:36;3.30;;;1.77;;
46365;SDS011;32073;49.166;8.076;2022-12-20T15:56:37;2.88;;;1.55;;
46365;SDS011;32073;49.166;8.076;2022-12-20T16:00:38;2.65;;;1.58;;
46365;SDS011;32073;49.166;8.076;2022-12-20T16:04:40;4.07;;;1.55;;
46365;SDS011;32073;49.166;8.076;2022-12-20T16:08:41;2.63;;;1.35;;
46365;SDS011;32073;49.166;8.076;2022-12-20T16:12:42;2.30;;;1.77;;
46365;SDS011;32073;49.166;8.076;2022-12-20T16:16:43;2.63;;;1.30;;
46365;SDS011;32073;49.166;8.076;2022-12-20T16:20:44;1.63;;;1.15;;
46365;SDS011;32073;49.166;8.076;2022-12-20T16:24:45;3.75;;;1.25;;
46365;SDS011;32073;49.166;8.076;2022-12-20T16:28:47;1.73;;;1.20;;
46365;SDS011;32073;49.166;8.076;2022-12-20T16:32:50;2.67;;;1.20;;
46365;SDS011;32073;49.166;8.076;2022-12-20T16:36:51;1.55;;;1.10;;
46365;SDS011;32073;49.166;8.076;2022-12-20T16:40:51;2.63;;;1.60;;
46365;SDS011;32073;49.166;8.076;2022-12-20T16:44:52;17.23;;;8.43;;
46365;SDS011;32073;49.166;8.076;2022-12-20T16:48:53;6.82;;;3.60;;
46365;SDS011;32073;49.166;8.076;2022-12-20T16:52:56;4.32;;;2.55;;
46365;SDS011;32073;49.166;8.076;2022-12-20T16:56:56;4.80;;;2.25;;
46365;SDS011;32073;49.166;8.076;2022-12-20T17:00:57;3.40;;;1.90;;
46365;SDS011;32073;49.166;8.076;2022-12-20T17:04:58;7.70;;;3.92;;
46365;SDS011;32073;49.166;8.076;2022-12-20T17:08:59;13.95;;;7.82;;
46365;SDS011;32073;49.166;8.076;2022-12-20T17:13:00;5.50;;;3.33;;
46365;SDS011;32073;49.166;8.076;2022-12-20T17:17:01;4.95;;;2.53;;
46365;SDS011;32073;49.166;8.076;2022-12-20T17:21:02;3.00;;;2.00;;
46365;SDS011;32073;49.166;8.076;2022-12-20T17:29:23;4.25;;;2.10;;
46365;SDS011;32073;49.166;8.076;2022-12-20T17:33:24;4.20;;;2.10;;
46365;SDS011;32073;49.166;8.076;2022-12-20T17:37:24;5.95;;;2.67;;
46365;SDS011;32073;49.166;8.076;2022-12-20T17:41:26;5.38;;;2.55;;
46365;SDS011;32073;49.166;8.076;2022-12-20T17:45:31;3.30;;;2.30;;
46365;SDS011;32073;49.166;8.076;2022-12-20T17:49:35;5.55;;;2.78;;
46365;SDS011;32073;49.166;8.076;2022-12-20T17:53:36;4.72;;;2.17;;
46365;SDS011;32073;49.166;8.076;2022-12-20T17:57:37;5.03;;;2.20;;
46365;SDS011;32073;49.166;8.076;2022-12-20T18:01:38;35.58;;;15.77;;
46365;SDS011;32073;49.166;8.076;2022-12-20T18:05:40;117.95;;;50.55;;
46365;SDS011;32073;49.166;8.076;2022-12-20T18:09:40;28.63;;;15.88;;
46365;SDS011;32073;49.166;8.076;2022-12-20T18:13:41;17.15;;;10.00;;
46365;SDS011;32073;49.166;8.076;2022-12-20T18:17:44;24.10;;;10.57;;
46365;SDS011;32073;49.166;8.076;2022-12-20T18:21:45;20.67;;;13.70;;
46365;SDS011;32073;49.166;8.076;2022-12-20T18:25:46;34.03;;;16.15;;
46365;SDS011;32073;49.166;8.076;2022-12-20T18:29:46;25.02;;;15.43;;
46365;SDS011;32073;49.166;8.076;2022-12-20T18:33:47;31.58;;;18.98;;
46365;SDS011;32073;49.166;8.076;2022-12-20T18:37:47;60.90;;;30.83;;
46365;SDS011;32073;49.166;8.076;2022-12-20T18:41:48;31.73;;;17.35;;
46365;SDS011;32073;49.166;8.076;2022-12-20T18:45:49;32.55;;;18.25;;
46365;SDS011;32073;49.166;8.076;2022-12-20T18:49:49;28.98;;;16.55;;
46365;SDS011;32073;49.166;8.076;2022-12-20T18:53:51;21.27;;;13.10;;
46365;SDS011;32073;49.166;8.076;2022-12-20T18:57:54;13.27;;;8.30;;
46365;SDS011;32073;49.166;8.076;2022-12-20T19:01:55;11.88;;;7.85;;
46365;SDS011;32073;49.166;8.076;2022-12-20T19:05:56;8.52;;;5.28;;
46365;SDS011;32073;49.166;8.076;2022-12-20T19:09:59;6.38;;;4.45;;
46365;SDS011;32073;49.166;8.076;2022-12-20T19:13:59;5.32;;;3.25;;
46365;SDS011;32073;49.166;8.076;2022-12-20T19:18:00;9.85;;;4.90;;
46365;SDS011;32073;49.166;8.076;2022-12-20T19:22:01;11.27;;;5.90;;
46365;SDS011;32073;49.166;8.076;2022-12-20T19:26:02;7.68;;;5.22;;
46365;SDS011;32073;49.166;8.076;2022-12-20T19:30:07;6.63;;;4.25;;
46365;SDS011;32073;49.166;8.076;2022-12-20T19:34:09;7.82;;;3.47;;
46365;SDS011;32073;49.166;8.076;2022-12-20T19:38:11;6.20;;;3.42;;
46365;SDS011;32073;49.166;8.076;2022-12-20T19:42:12;6.53;;;3.67;;
46365;SDS011;32073;49.166;8.076;2022-12-20T19:46:12;9.07;;;4.25;;
46365;SDS011;32073;49.166;8.076;2022-12-20T19:50:13;4.57;;;2.70;;
46365;SDS011;32073;49.166;8.076;2022-12-20T19:54:14;5.10;;;2.70;;
46365;SDS011;32073;49.166;8.076;2022-12-20T19:58:15;4.63;;;2.80;;
46365;SDS011;32073;49.166;8.076;2022-12-20T20:02:15;4.90;;;3.13;;
46365;SDS011;32073;49.166;8.076;2022-12-20T20:06:16;7.45;;;4.97;;
46365;SDS011;32073;49.166;8.076;2022-12-20T20:10:17;4.95;;;3.67;;
46365;SDS011;32073;49.166;8.076;2022-12-20T20:14:18;8.27;;;3.47;;
46365;SDS011;32073;49.166;8.076;2022-12-20T20:18:19;13.77;;;9.88;;
46365;SDS011;32073;49.166;8.076;2022-12-20T20:22:20;13.30;;;8.60;;
46365;SDS011;32073;49.166;8.076;2022-12-20T20:26:22;14.52;;;6.88;;
46365;SDS011;32073;49.166;8.076;2022-12-20T20:30:25;77.85;;;35.47;;
46365;SDS011;32073;49.166;8.076;2022-12-20T20:34:26;24.70;;;12.77;;
46365;SDS011;32073;49.166;8.076;2022-12-20T20:38:27;10.35;;;6.50;;
46365;SDS011;32073;49.166;8.076;2022-12-20T20:42:29;6.18;;;3.85;;
46365;SDS011;32073;49.166;8.076;2022-12-20T20:46:30;5.05;;;3.15;;
46365;SDS011;32073;49.166;8.076;2022-12-20T20:50:30;4.57;;;3.33;;
46365;SDS011;32073;49.166;8.076;2022-12-20T20:54:31;7.35;;;3.55;;
46365;SDS011;32073;49.166;8.076;2022-12-20T20:58:32;6.55;;;3.55;;
46365;SDS011;32073;49.166;8.076;2022-12-20T21:02:34;6.13;;;4.15;;
46365;SDS011;32073;49.166;8.076;2022-12-20T21:06:35;12.02;;;6.78;;
46365;SDS011;32073;49.166;8.076;2022-12-20T21:10:36;9.82;;;5.90;;
46365;SDS011;32073;49.166;8.076;2022-12-20T21:14:37;9.85;;;6.18;;
46365;SDS011;32073;49.166;8.076;2022-12-20T21:18:37;11.68;;;6.63;;
46365;SDS011;32073;49.166;8.076;2022-12-20T21:22:38;9.88;;;5.65;;
46365;SDS011;32073;49.166;8.076;2022-12-20T21:26:39;8.57;;;5.60;;
46365;SDS011;32073;49.166;8.076;2022-12-20T21:30:39;7.93;;;5.32;;
46365;SDS011;32073;49.166;8.076;2022-12-20T21:34:40;9.00;;;5.90;;
46365;SDS011;32073;49.166;8.076;2022-12-20T21:38:41;11.82;;;7.07;;
46365;SDS011;32073;49.166;8.076;2022-12-20T21:42:46;13.55;;;8.23;;
46365;SDS011;32073;49.166;8.076;2022-12-20T21:46:47;16.08;;;9.50;;
46365;SDS011;32073;49.166;8.076;2022-12-20T21:50:57;9.98;;;6.65;;
46365;SDS011;32073;49.166;8.076;2022-12-20T21:54:59;9.18;;;5.70;;
46365;SDS011;32073;49.166;8.076;2022-12-20T21:59:00;10.75;;;5.53;;
46365;SDS011;32073;49.166;8.076;2022-12-20T22:03:02;9.85;;;6.13;;
46365;SDS011;32073;49.166;8.076;2022-12-20T22:07:03;9.13;;;4.95;;
46365;SDS011;32073;49.166;8.076;2022-12-20T22:11:05;10.27;;;6.13;;
46365;SDS011;32073;49.166;8.076;2022-12-20T22:15:08;8.13;;;5.78;;
46365;SDS011;32073;49.166;8.076;2022-12-20T22:19:11;8.77;;;4.97;;
46365;SDS011;32073;49.166;8.076;2022-12-20T22:23:14;7.10;;;4.13;;
46365;SDS011;32073;49.166;8.076;2022-12-20T22:27:15;7.32;;;4.82;;
46365;SDS011;32073;49.166;8.076;2022-12-20T22:31:16;8.43;;;5.20;;
46365;SDS011;32073;49.166;8.076;2022-12-20T22:35:18;7.90;;;5.05;;
46365;SDS011;32073;49.166;8.076;2022-12-20T22:39:19;10.48;;;7.07;;
46365;SDS011;32073;49.166;8.076;2022-12-20T22:43:20;9.32;;;5.05;;
46365;SDS011;32073;49.166;8.076;2022-12-20T22:47:21;12.05;;;8.07;;
46365;SDS011;32073;49.166;8.076;2022-12-20T22:51:21;9.02;;;6.20;;
46365;SDS011;32073;49.166;8.076;2022-12-20T22:55:24;9.82;;;5.60;;
46365;SDS011;32073;49.166;8.076;2022-12-20T22:59:25;9.55;;;6.47;;
46365;SDS011;32073;49.166;8.076;2022-12-20T23:03:26;9.20;;;7.28;;
46365;SDS011;32073;49.166;8.076;2022-12-20T23:07:28;9.40;;;7.07;;
46365;SDS011;32073;49.166;8.076;2022-12-20T23:11:29;9.20;;;6.13;;
46365;SDS011;32073;49.166;8.076;2022-12-20T23:15:48;11.23;;;7.20;;
46365;SDS011;32073;49.166;8.076;2022-12-20T23:19:49;12.60;;;9.30;;
46365;SDS011;32073;49.166;8.076;2022-12-20T23:24:14;12.18;;;6.90;;
46365;SDS011;32073;49.166;8.076;2022-12-20T23:28:15;8.82;;;6.30;;
46365;SDS011;32073;49.166;8.076;2022-12-20T23:32:16;9.57;;;5.85;;
46365;SDS011;32073;49.166;8.076;2022-12-20T23:36:16;9.88;;;6.00;;
46365;SDS011;32073;49.166;8.076;2022-12-20T23:40:17;12.13;;;7.35;;
46365;SDS011;32073;49.166;8.076;2022-12-20T23:44:18;9.45;;;6.40;;
46365;SDS011;32073;49.166;8.076;2022-12-20T23:48:18;11.48;;;7.05;;
46365;SDS011;32073;49.166;8.076;2022-12-20T23:52:19;10.93;;;7.45;;
46365;SDS011;32073;49.166;8.076;2022-12-20T23:56:20;9.00;;;5.22;;
